Time;durP1;ratioP1;P1;durP2;ratioP2;P2;SDS_P1;SDS_P2;PMS_P1;PMS_P2;Temp;Humidity;BMP_temperature;BMP_pressure;BME280_temperature;BME280_humidity;BME280_pressure;Samples;Min_cycle;Max_cycle;Signal;HPM_P1;HPM_P2
2023/06/19 00:02:21;;;;;;;9.17;8.30;;;24.00;68.50;;;;;;5090166;28;20117;-74
2023/06/19 00:04:46;;;;;;;9.13;8.20;;;24.00;68.10;;;;;;5070908;28;20130;-74
2023/06/19 00:07:12;;;;;;;9.13;7.93;;;24.00;68.00;;;;;;5075539;28;20104;-74
2023/06/19 00:09:38;;;;;;;9.70;7.70;;;24.00;67.80;;;;;;5074852;28;20100;-74
2023/06/19 00:12:04;;;;;;;8.82;7.72;;;24.00;67.80;;;;;;5074202;28;20109;-74
2023/06/19 00:14:30;;;;;;;10.25;8.10;;;24.10;67.70;;;;;;5089489;28;20555;-75
2023/06/19 00:16:56;;;;;;;9.23;7.55;;;24.10;67.70;;;;;;5092369;28;20044;-74
2023/06/19 00:19:22;;;;;;;8.75;7.95;;;24.10;67.70;;;;;;5090619;28;20051;-74
2023/06/19 00:21:48;;;;;;;9.07;7.50;;;24.10;67.70;;;;;;5076046;28;20096;-73
2023/06/19 00:24:13;;;;;;;8.63;7.80;;;24.10;67.70;;;;;;5091673;28;20051;-73
2023/06/19 00:26:40;;;;;;;9.20;8.20;;;24.10;67.60;;;;;;5075981;28;20112;-75
2023/06/19 00:29:07;;;;;;;8.38;7.57;;;24.10;67.80;;;;;;5088508;28;20139;-74
2023/06/19 00:31:32;;;;;;;8.82;7.95;;;24.10;67.80;;;;;;5075230;28;20082;-73
2023/06/19 00:33:58;;;;;;;9.05;8.07;;;24.00;67.70;;;;;;5070780;28;20686;-73
2023/06/19 00:36:25;;;;;;;8.52;7.40;;;24.00;67.70;;;;;;5079889;28;20051;-73
2023/06/19 00:38:52;;;;;;;9.13;7.95;;;24.00;67.60;;;;;;5105702;27;20137;-73
2023/06/19 00:41:18;;;;;;;9.65;8.15;;;24.00;67.70;;;;;;5076146;28;20047;-73
2023/06/19 00:43:44;;;;;;;8.93;7.70;;;24.00;67.80;;;;;;5089343;28;20044;-73
2023/06/19 00:46:11;;;;;;;9.85;8.07;;;24.00;67.80;;;;;;5077122;28;20105;-74
2023/06/19 00:48:36;;;;;;;9.02;7.88;;;24.00;67.90;;;;;;5084001;28;20089;-74
2023/06/19 00:51:02;;;;;;;8.85;8.00;;;24.00;68.00;;;;;;5096071;28;20722;-73
2023/06/19 00:53:28;;;;;;;8.57;7.68;;;23.90;68.10;;;;;;5090181;28;20130;-74
2023/06/19 00:55:56;;;;;;;8.73;7.82;;;23.90;68.10;;;;;;5094156;28;20406;-73
2023/06/19 00:58:22;;;;;;;8.80;7.68;;;23.90;68.20;;;;;;5077335;28;20039;-73
2023/06/19 01:00:48;;;;;;;9.13;8.07;;;23.90;68.20;;;;;;5095281;28;20058;-74
2023/06/19 01:03:16;;;;;;;10.63;8.40;;;23.90;68.50;;;;;;5074039;28;20058;-74
2023/06/19 01:05:43;;;;;;;9.13;8.20;;;23.90;68.60;;;;;;5067133;28;20119;-73
2023/06/19 01:08:18;;;;;;;;;;;23.90;68.90;;;;;;5074347;28;20043;-74
2023/06/19 01:10:51;;;;;;;8.85;7.82;;;23.80;69.10;;;;;;5069605;28;19934;-73
2023/06/19 01:13:34;;;;;;;9.00;8.10;;;23.80;69.20;;;;;;5078251;28;20047;-73
2023/06/19 01:16:03;;;;;;;8.55;7.75;;;23.80;69.30;;;;;;5070180;28;20051;-74
2023/06/19 01:18:31;;;;;;;9.10;8.30;;;23.80;69.40;;;;;;5077986;28;20043;-73
2023/06/19 01:21:08;;;;;;;9.13;8.23;;;23.80;69.60;;;;;;5093973;28;21758;-73
2023/06/19 01:23:33;;;;;;;8.80;8.00;;;23.80;69.80;;;;;;5059075;28;20182;-73
2023/06/19 01:25:59;;;;;;;10.45;8.20;;;23.80;70.00;;;;;;5076268;28;20056;-74
2023/06/19 01:28:26;;;;;;;9.20;7.90;;;23.70;70.30;;;;;;5087135;28;20502;-74
2023/06/19 01:30:54;;;;;;;8.82;7.93;;;23.70;70.60;;;;;;5088862;28;20039;-73
2023/06/19 01:33:28;;;;;;;8.40;7.55;;;23.70;70.70;;;;;;5068462;28;20048;-72
2023/06/19 01:35:55;;;;;;;9.43;8.45;;;23.70;70.90;;;;;;5106423;27;20058;-73
2023/06/19 01:38:22;;;;;;;;;;;23.70;71.10;;;;;;5093740;28;20047;-73
2023/06/19 01:40:49;;;;;;;9.15;8.10;;;23.60;71.40;;;;;;5084745;28;19932;-74
2023/06/19 01:43:16;;;;;;;10.20;7.95;;;23.60;72.10;;;;;;5076275;28;20150;-73
2023/06/19 01:45:42;;;;;;;9.02;8.23;;;23.60;71.70;;;;;;5070041;28;20046;-73
2023/06/19 01:48:08;;;;;;;8.95;8.05;;;23.60;71.90;;;;;;5070462;28;20410;-73
2023/06/19 01:50:34;;;;;;;8.60;7.80;;;23.60;71.90;;;;;;5083799;28;20047;-73
2023/06/19 01:53:00;;;;;;;8.73;7.82;;;23.60;72.00;;;;;;5072033;28;20075;-74
2023/06/19 01:55:25;;;;;;;9.17;8.27;;;23.60;72.00;;;;;;5090355;27;20054;-73
2023/06/19 01:57:51;;;;;;;9.32;8.43;;;23.60;72.00;;;;;;5090128;28;20039;-73
2023/06/19 02:00:17;;;;;;;9.77;8.18;;;23.60;72.00;;;;;;5067011;28;20057;-74
2023/06/19 02:02:43;;;;;;;9.25;8.35;;;23.60;72.30;;;;;;5075655;28;20054;-74
2023/06/19 02:05:09;;;;;;;9.98;9.02;;;23.60;72.40;;;;;;5088717;28;20051;-74
2023/06/19 02:07:35;;;;;;;9.60;8.45;;;23.50;72.40;;;;;;5075199;28;20652;-73
2023/06/19 02:10:00;;;;;;;11.02;8.32;;;23.50;72.70;;;;;;5074631;28;20131;-75
2023/06/19 02:12:26;;;;;;;10.55;8.05;;;23.50;72.80;;;;;;5089440;28;20122;-73
2023/06/19 02:14:52;;;;;;;9.80;8.88;;;23.50;72.90;;;;;;5066192;28;20427;-73
2023/06/19 02:17:17;;;;;;;8.85;8.05;;;23.50;73.00;;;;;;5086676;28;20054;-73
2023/06/19 02:19:43;;;;;;;10.27;8.65;;;23.50;73.10;;;;;;5071420;28;20048;-74
2023/06/19 02:22:09;;;;;;;9.45;8.55;;;23.40;73.30;;;;;;5076338;28;20791;-73
2023/06/19 02:24:34;;;;;;;9.45;8.55;;;23.40;73.50;;;;;;5071165;28;20201;-73
2023/06/19 02:27:01;;;;;;;9.63;8.15;;;23.40;74.00;;;;;;5077826;28;20040;-74
2023/06/19 02:29:29;;;;;;;9.52;8.52;;;23.40;74.30;;;;;;5093901;28;20036;-73
2023/06/19 02:31:55;;;;;;;9.55;8.52;;;23.30;74.60;;;;;;5071642;28;20043;-73
2023/06/19 02:34:23;;;;;;;9.25;8.18;;;23.30;74.60;;;;;;5094863;28;20092;-73
2023/06/19 02:36:49;;;;;;;9.35;8.45;;;23.30;74.90;;;;;;5067293;28;20100;-73
2023/06/19 02:39:15;;;;;;;10.52;8.98;;;23.30;75.00;;;;;;5071094;28;20048;-73
2023/06/19 02:41:45;;;;;;;9.05;7.97;;;23.30;75.10;;;;;;5064426;28;20053;-73
2023/06/19 02:44:11;;;;;;;8.88;7.97;;;23.30;75.60;;;;;;5085809;28;20054;-74
2023/06/19 02:46:37;;;;;;;9.77;8.83;;;23.20;75.40;;;;;;5091313;28;20098;-73
2023/06/19 02:49:03;;;;;;;9.40;8.50;;;23.20;75.60;;;;;;5070412;28;20078;-73
2023/06/19 02:51:28;;;;;;;9.27;8.38;;;23.20;75.80;;;;;;5072917;28;20087;-74
2023/06/19 02:53:54;;;;;;;9.80;8.80;;;23.20;76.00;;;;;;5059153;28;20062;-74
2023/06/19 02:56:20;;;;;;;9.30;8.40;;;23.10;76.20;;;;;;5072484;28;20052;-74
2023/06/19 02:58:45;;;;;;;9.75;8.35;;;23.10;76.40;;;;;;5069199;28;20051;-73
2023/06/19 03:01:11;;;;;;;12.60;9.32;;;23.10;76.80;;;;;;5068172;28;20180;-73
2023/06/19 03:03:37;;;;;;;8.63;7.70;;;23.10;77.00;;;;;;5071904;28;21796;-73
2023/06/19 03:06:06;;;;;;;8.77;7.93;;;23.10;77.30;;;;;;5065020;28;20044;-73
2023/06/19 03:08:36;;;;;;;10.82;8.40;;;23.10;77.60;;;;;;5073495;28;20047;-74
2023/06/19 03:11:05;;;;;;;10.65;8.32;;;23.10;78.10;;;;;;5066297;28;20044;-73
2023/06/19 03:13:53;;;;;;;9.13;7.82;;;23.00;78.10;;;;;;5072104;28;20513;-73
2023/06/19 03:16:20;;;;;;;8.80;7.93;;;23.00;78.80;;;;;;5066536;28;20202;-74
2023/06/19 03:18:46;;;;;;;8.50;7.70;;;23.00;78.90;;;;;;5055855;28;20036;-73
2023/06/19 03:21:13;;;;;;;9.10;8.00;;;23.00;79.40;;;;;;5066727;28;20052;-74
2023/06/19 03:23:40;;;;;;;8.77;7.97;;;22.90;80.00;;;;;;5072729;28;21753;-73
2023/06/19 03:26:10;;;;;;;8.73;7.93;;;22.90;80.30;;;;;;5102176;28;20056;-75
2023/06/19 03:28:36;;;;;;;8.88;7.97;;;22.90;80.60;;;;;;5066504;28;20083;-73
2023/06/19 03:31:02;;;;;;;8.57;7.50;;;22.90;81.20;;;;;;5073164;28;20398;-73
2023/06/19 03:33:28;;;;;;;9.05;8.02;;;22.80;81.40;;;;;;5074873;28;20052;-73
2023/06/19 03:35:53;;;;;;;10.98;7.53;;;22.80;81.70;;;;;;5074178;28;20048;-73
2023/06/19 03:38:19;;;;;;;8.20;7.30;;;22.80;82.20;;;;;;5066663;28;20044;-73
2023/06/19 03:40:45;;;;;;;9.25;6.85;;;22.80;82.80;;;;;;5076825;28;20052;-73
2023/06/19 03:43:10;;;;;;;8.25;6.80;;;22.80;83.30;;;;;;5068389;28;20053;-73
2023/06/19 03:45:36;;;;;;;8.55;7.07;;;22.70;83.60;;;;;;5065270;28;20043;-73
2023/06/19 03:48:02;;;;;;;7.80;7.00;;;22.80;83.90;;;;;;5072347;28;20066;-74
2023/06/19 03:50:28;;;;;;;7.88;7.07;;;22.70;84.30;;;;;;5073073;28;20044;-73
2023/06/19 03:52:54;;;;;;;8.65;6.97;;;22.80;84.60;;;;;;5076375;28;20059;-73
2023/06/19 03:55:19;;;;;;;8.38;6.68;;;22.70;84.90;;;;;;5072080;28;20051;-74
2023/06/19 03:57:48;;;;;;;10.07;7.03;;;22.70;85.20;;;;;;5074835;28;20094;-74
2023/06/19 04:00:14;;;;;;;8.10;6.60;;;22.80;85.70;;;;;;5059768;28;20131;-73
2023/06/19 04:02:41;;;;;;;8.07;7.28;;;22.80;86.10;;;;;;5073246;28;20050;-73
2023/06/19 04:05:07;;;;;;;9.45;7.07;;;22.70;86.20;;;;;;5072868;28;20047;-73
2023/06/19 04:07:32;;;;;;;7.95;7.15;;;22.80;86.60;;;;;;5074714;28;20044;-73
2023/06/19 04:09:58;;;;;;;8.77;6.95;;;22.80;86.90;;;;;;5074218;28;20063;-73
2023/06/19 04:12:24;;;;;;;8.35;7.05;;;22.80;87.30;;;;;;5075035;28;20170;-73
2023/06/19 04:14:50;;;;;;;7.00;6.00;;;22.80;87.60;;;;;;5070241;28;20047;-74
2023/06/19 04:17:16;;;;;;;10.48;7.05;;;22.80;87.60;;;;;;5071842;28;20055;-73
2023/06/19 04:19:42;;;;;;;8.48;6.80;;;22.80;88.00;;;;;;5072685;28;20044;-73
2023/06/19 04:22:07;;;;;;;7.10;6.28;;;22.80;88.20;;;;;;5070515;28;20172;-73
2023/06/19 04:24:33;;;;;;;8.18;6.65;;;22.80;88.60;;;;;;5073208;28;20131;-73
2023/06/19 04:26:59;;;;;;;7.63;6.78;;;22.80;88.90;;;;;;5074515;28;20197;-74
2023/06/19 04:29:25;;;;;;;8.57;7.13;;;22.70;89.30;;;;;;5071956;28;20045;-74
2023/06/19 04:31:50;;;;;;;7.30;6.60;;;22.70;89.60;;;;;;5072601;28;20040;-74
2023/06/19 04:34:17;;;;;;;9.32;6.93;;;22.70;89.80;;;;;;5065450;28;20071;-73
2023/06/19 04:36:44;;;;;;;8.77;6.13;;;22.70;90.10;;;;;;5070301;28;20047;-74
2023/06/19 04:39:10;;;;;;;7.80;6.65;;;22.70;90.30;;;;;;5073263;28;20427;-73
2023/06/19 04:41:38;;;;;;;6.93;6.33;;;22.70;90.40;;;;;;5072946;28;20048;-73
2023/06/19 04:44:08;;;;;;;9.32;6.40;;;22.70;90.60;;;;;;5072207;28;20318;-73
2023/06/19 04:46:34;;;;;;;7.63;6.60;;;22.70;90.70;;;;;;5097989;27;20062;-73
2023/06/19 04:48:59;;;;;;;8.10;6.60;;;22.70;90.90;;;;;;5074532;28;20043;-73
2023/06/19 04:51:26;;;;;;;8.38;6.70;;;22.70;91.00;;;;;;5068298;28;20056;-73
2023/06/19 04:53:52;;;;;;;8.63;6.00;;;22.70;91.10;;;;;;5072100;28;20047;-72
2023/06/19 04:56:17;;;;;;;7.63;6.30;;;22.70;91.10;;;;;;5073994;28;20052;-73
2023/06/19 04:58:47;;;;;;;6.80;6.07;;;22.70;91.10;;;;;;5074685;28;20123;-73
2023/06/19 05:01:13;;;;;;;6.68;6.05;;;22.70;91.20;;;;;;5066818;28;20051;-73
2023/06/19 05:03:39;;;;;;;7.38;6.43;;;22.70;91.20;;;;;;5071135;28;20048;-74
2023/06/19 05:06:05;;;;;;;6.30;5.63;;;22.80;91.30;;;;;;5062658;28;20056;-73
2023/06/19 05:08:31;;;;;;;6.32;5.70;;;22.80;91.30;;;;;;5068423;28;20045;-74
2023/06/19 05:10:57;;;;;;;7.28;5.50;;;22.80;91.30;;;;;;5071071;28;20122;-73
2023/06/19 05:13:24;;;;;;;6.43;4.80;;;22.70;91.60;;;;;;5069501;28;20044;-72
2023/06/19 05:15:51;;;;;;;6.05;4.63;;;22.70;91.80;;;;;;5074886;28;20140;-73
2023/06/19 05:18:17;;;;;;;10.05;4.97;;;22.70;92.00;;;;;;5074626;28;20055;-73
2023/06/19 05:20:43;;;;;;;8.93;4.78;;;22.70;92.20;;;;;;5064272;28;20051;-73
2023/06/19 05:23:09;;;;;;;8.97;4.47;;;22.70;92.40;;;;;;5074576;28;20083;-72
2023/06/19 05:25:35;;;;;;;7.53;5.15;;;22.60;92.60;;;;;;5068883;28;20845;-73
2023/06/19 05:28:00;;;;;;;6.85;4.72;;;22.60;92.90;;;;;;5072354;28;20044;-74
2023/06/19 05:30:26;;;;;;;8.07;4.60;;;22.50;93.20;;;;;;5059694;28;20135;-72
2023/06/19 05:32:52;;;;;;;7.22;4.32;;;22.50;93.80;;;;;;5065561;28;20470;-74
2023/06/19 05:35:18;;;;;;;5.53;4.00;;;22.40;94.10;;;;;;5105883;27;20044;-74
2023/06/19 05:37:43;;;;;;;5.78;4.40;;;22.40;94.60;;;;;;5076301;28;20123;-73
2023/06/19 05:40:10;;;;;;;7.13;4.43;;;22.40;95.00;;;;;;5077953;28;20055;-73
2023/06/19 05:42:36;;;;;;;4.95;4.45;;;22.30;95.30;;;;;;5066556;28;20126;-73
2023/06/19 05:45:03;;;;;;;5.70;4.38;;;22.30;95.60;;;;;;5062167;28;20040;-73
2023/06/19 05:47:30;;;;;;;5.40;4.43;;;22.30;96.10;;;;;;5068978;28;20056;-73
2023/06/19 05:49:59;;;;;;;5.78;4.88;;;22.30;96.40;;;;;;5068621;28;20060;-73
2023/06/19 05:52:25;;;;;;;4.72;4.20;;;22.30;96.70;;;;;;5067151;28;20056;-73
2023/06/19 05:54:52;;;;;;;7.90;4.45;;;22.30;96.80;;;;;;5065295;28;20381;-74
2023/06/19 05:57:20;;;;;;;7.50;5.50;;;22.40;97.20;;;;;;5063582;28;20044;-74
2023/06/19 05:59:47;;;;;;;7.10;4.63;;;22.40;97.30;;;;;;5069453;28;20051;-73
2023/06/19 06:02:13;;;;;;;5.70;5.13;;;22.50;97.40;;;;;;5064055;28;20040;-73
2023/06/19 06:04:39;;;;;;;6.53;5.00;;;22.60;97.50;;;;;;5058646;28;20745;-71
2023/06/19 06:07:05;;;;;;;6.28;4.75;;;22.60;97.60;;;;;;5073636;28;20043;-72
2023/06/19 06:09:31;;;;;;;6.47;4.93;;;22.70;97.70;;;;;;5067440;28;22047;-72
2023/06/19 06:11:56;;;;;;;5.28;4.68;;;22.80;97.80;;;;;;5061673;28;20056;-71
2023/06/19 06:14:26;;;;;;;5.25;4.75;;;22.80;97.80;;;;;;5066778;28;21446;-71
2023/06/19 06:16:51;;;;;;;5.22;4.47;;;22.80;97.80;;;;;;5071645;28;20051;-71
2023/06/19 06:19:18;;;;;;;11.80;4.72;;;22.90;97.90;;;;;;5073935;28;20036;-71
2023/06/19 06:21:43;;;;;;;7.65;4.65;;;22.90;98.00;;;;;;5073478;28;20474;-71
2023/06/19 06:24:09;;;;;;;4.80;4.32;;;22.90;98.10;;;;;;5071271;28;20172;-71
2023/06/19 06:26:35;;;;;;;7.25;4.22;;;23.00;98.10;;;;;;5077130;28;20422;-71
2023/06/19 06:29:01;;;;;;;4.95;4.32;;;23.00;98.10;;;;;;5064061;28;20048;-71
2023/06/19 06:31:27;;;;;;;6.90;4.30;;;23.10;98.20;;;;;;5076425;28;20544;-71
2023/06/19 06:33:55;;;;;;;6.25;4.55;;;23.10;98.30;;;;;;5077868;28;20072;-71
2023/06/19 06:36:21;;;;;;;7.78;4.35;;;23.10;98.20;;;;;;5079030;28;20126;-71
2023/06/19 06:38:46;;;;;;;5.75;4.32;;;23.00;98.40;;;;;;5070500;28;20123;-71
2023/06/19 06:41:12;;;;;;;9.18;5.55;;;23.00;98.80;;;;;;5105549;28;20055;-71
2023/06/19 06:43:40;;;;;;;6.97;5.13;;;22.90;98.80;;;;;;5071584;28;20048;-71
2023/06/19 06:46:05;;;;;;;5.57;4.65;;;22.90;98.90;;;;;;5061161;28;22069;-70
2023/06/19 06:48:31;;;;;;;7.97;4.80;;;22.90;99.10;;;;;;5084506;28;20501;-72
2023/06/19 06:51:01;;;;;;;5.82;4.50;;;22.90;99.30;;;;;;5084584;28;20097;-71
2023/06/19 06:53:28;;;;;;;5.80;4.47;;;22.90;99.40;;;;;;5068314;28;20463;-73
2023/06/19 06:55:54;;;;;;;5.20;4.70;;;22.80;99.60;;;;;;5086738;28;20135;-73
2023/06/19 06:58:20;;;;;;;8.63;4.88;;;22.80;99.70;;;;;;5073697;28;20044;-72
2023/06/19 07:00:45;;;;;;;7.35;4.53;;;22.80;99.80;;;;;;5092734;28;20096;-72
2023/06/19 07:03:11;;;;;;;7.03;4.95;;;22.80;99.80;;;;;;5063938;28;20093;-72
2023/06/19 07:05:37;;;;;;;8.07;4.68;;;22.80;99.90;;;;;;5089077;28;20073;-72
2023/06/19 07:08:03;;;;;;;6.22;4.43;;;22.80;99.90;;;;;;5093979;28;20075;-72
2023/06/19 07:10:30;;;;;;;5.40;4.50;;;22.80;99.90;;;;;;5095460;28;20122;-72
2023/06/19 07:12:56;;;;;;;6.68;5.05;;;22.80;99.90;;;;;;5097531;28;20051;-72
2023/06/19 07:15:21;;;;;;;6.72;4.88;;;22.80;99.90;;;;;;5094658;28;22600;-72
2023/06/19 07:17:47;;;;;;;6.90;5.10;;;22.80;99.90;;;;;;5098474;28;20079;-73
2023/06/19 07:20:14;;;;;;;4.97;4.40;;;22.90;99.90;;;;;;5095625;28;20173;-73
2023/06/19 07:22:40;;;;;;;5.78;4.90;;;22.90;99.90;;;;;;5071751;28;20075;-73
2023/06/19 07:25:07;;;;;;;5.68;4.78;;;22.90;99.90;;;;;;5079030;28;20589;-73
2023/06/19 07:27:32;;;;;;;6.83;5.40;;;22.90;99.90;;;;;;5095252;28;20114;-74
2023/06/19 07:29:58;;;;;;;5.57;5.00;;;22.90;99.90;;;;;;5095950;28;20380;-73
2023/06/19 07:32:24;;;;;;;9.05;5.30;;;22.90;99.90;;;;;;5092345;28;20091;-73
2023/06/19 07:34:49;;;;;;;7.47;5.28;;;22.80;99.90;;;;;;5076385;28;20130;-71
2023/06/19 07:37:17;;;;;;;8.02;5.00;;;22.80;99.90;;;;;;5084983;28;20123;-71
2023/06/19 07:39:50;;;;;;;10.00;5.25;;;22.80;99.90;;;;;;5092741;28;20081;-73
2023/06/19 07:42:16;;;;;;;6.15;4.97;;;22.80;99.90;;;;;;5084568;28;20456;-71
2023/06/19 07:44:43;;;;;;;5.82;5.25;;;22.80;99.90;;;;;;5095027;28;20058;-73
2023/06/19 07:47:09;;;;;;;6.15;5.28;;;22.70;99.90;;;;;;5072622;28;20130;-73
2023/06/19 07:49:35;;;;;;;6.80;5.90;;;22.70;99.90;;;;;;5073127;28;20051;-72
2023/06/19 07:52:01;;;;;;;9.10;5.67;;;22.60;99.90;;;;;;5099314;28;20971;-72
2023/06/19 07:54:27;;;;;;;8.18;5.60;;;22.50;99.90;;;;;;5092617;28;20043;-72
2023/06/19 07:56:52;;;;;;;7.72;5.68;;;22.50;99.90;;;;;;5076672;28;20043;-72
2023/06/19 07:59:18;;;;;;;6.35;5.10;;;22.50;99.90;;;;;;5076850;28;20530;-72
2023/06/19 08:01:44;;;;;;;6.55;5.05;;;22.60;99.90;;;;;;5095712;28;20039;-72
2023/06/19 08:04:10;;;;;;;6.90;5.13;;;22.60;99.90;;;;;;5072812;28;21027;-72
2023/06/19 08:06:36;;;;;;;5.68;4.70;;;22.70;99.90;;;;;;5086981;28;20971;-71
2023/06/19 08:09:02;;;;;;;6.80;5.10;;;22.80;99.90;;;;;;5093636;28;20036;-71
2023/06/19 08:11:28;;;;;;;5.78;4.63;;;22.90;99.90;;;;;;5095218;27;20421;-71
2023/06/19 08:13:54;;;;;;;5.57;4.85;;;23.00;99.90;;;;;;5084848;27;20035;-71
2023/06/19 08:16:19;;;;;;;6.32;4.80;;;23.10;99.90;;;;;;5070902;28;20478;-73
2023/06/19 08:18:45;;;;;;;5.70;4.72;;;23.20;99.90;;;;;;5074445;28;20050;-71
2023/06/19 08:21:12;;;;;;;5.60;4.47;;;23.20;99.90;;;;;;5093388;28;20047;-71
2023/06/19 08:23:39;;;;;;;7.82;5.32;;;23.20;99.90;;;;;;5081977;28;20513;-71
2023/06/19 08:26:05;;;;;;;5.50;4.95;;;23.20;99.90;;;;;;5097905;28;20594;-71
2023/06/19 08:28:33;;;;;;;5.60;4.97;;;23.20;99.90;;;;;;5098398;28;20044;-70
2023/06/19 08:30:59;;;;;;;6.15;5.53;;;23.10;99.90;;;;;;5088976;28;21140;-71
2023/06/19 08:33:25;;;;;;;7.55;6.78;;;23.00;99.90;;;;;;5099115;28;20077;-69
2023/06/19 08:35:51;;;;;;;7.70;7.00;;;23.00;99.90;;;;;;5100452;28;20170;-70
2023/06/19 08:38:16;;;;;;;7.13;6.45;;;22.90;99.90;;;;;;5082288;28;20511;-69
2023/06/19 08:40:43;;;;;;;8.50;6.97;;;22.90;99.90;;;;;;5076294;28;20051;-71
2023/06/19 08:43:09;;;;;;;;;;;22.90;99.90;;;;;;5095386;28;20077;-69
2023/06/19 08:45:35;;;;;;;8.93;8.03;;;22.80;99.90;;;;;;5088059;28;19927;-70
2023/06/19 08:48:04;;;;;;;8.77;7.22;;;22.80;99.90;;;;;;5094461;28;20081;-70
2023/06/19 08:50:33;;;;;;;8.65;7.57;;;22.70;99.90;;;;;;5095270;28;21090;-69
2023/06/19 08:52:59;;;;;;;9.07;8.18;;;22.70;99.90;;;;;;5079560;28;20047;-70
2023/06/19 08:55:25;;;;;;;10.23;7.60;;;22.70;99.90;;;;;;5092670;28;20092;-71
2023/06/19 08:57:52;;;;;;;9.13;7.70;;;22.80;99.90;;;;;;5075011;28;20051;-70
2023/06/19 09:00:29;;;;;;;8.20;7.40;;;22.80;99.90;;;;;;5080285;28;20082;-70
2023/06/19 09:03:03;;;;;;;9.32;7.88;;;22.80;99.90;;;;;;5108860;27;20047;-70
2023/06/19 09:05:29;;;;;;;8.88;7.95;;;22.90;99.90;;;;;;5097339;28;20040;-69
2023/06/19 09:08:00;;;;;;;8.23;7.10;;;23.00;99.90;;;;;;5094885;28;20405;-69
2023/06/19 09:10:26;;;;;;;8.15;7.20;;;23.10;99.90;;;;;;5092517;28;20044;-69
2023/06/19 09:13:00;;;;;;;8.17;7.30;;;23.20;99.90;;;;;;5085878;28;20031;-70
2023/06/19 09:15:32;;;;;;;8.00;6.80;;;23.10;99.90;;;;;;5069014;28;20074;-70
2023/06/19 09:18:05;;;;;;;7.90;7.10;;;23.20;99.90;;;;;;5087880;28;20761;-69
2023/06/19 09:20:32;;;;;;;10.77;7.13;;;23.20;99.90;;;;;;5084362;28;20554;-70
2023/06/19 09:22:58;;;;;;;;;;;23.20;99.90;;;;;;5082336;28;20063;-70
2023/06/19 09:25:26;;;;;;;10.27;7.60;;;23.20;99.90;;;;;;5095581;28;19950;-70
2023/06/19 09:27:55;;;;;;;10.23;7.38;;;23.20;99.90;;;;;;5095980;28;20048;-70
2023/06/19 09:30:21;;;;;;;9.55;7.82;;;23.20;99.90;;;;;;5095318;28;20132;-70
2023/06/19 09:32:47;;;;;;;8.23;7.43;;;23.20;99.90;;;;;;5095435;28;20058;-71
2023/06/19 09:35:13;;;;;;;9.05;8.18;;;23.30;99.90;;;;;;5074569;28;22356;-70
2023/06/19 09:37:42;;;;;;;9.85;7.43;;;23.30;99.90;;;;;;5094660;28;20047;-70
2023/06/19 09:40:10;;;;;;;8.30;7.50;;;23.40;99.90;;;;;;5077344;28;20406;-70
2023/06/19 09:42:37;;;;;;;8.65;7.35;;;23.50;99.90;;;;;;5094621;28;20044;-70
2023/06/19 09:45:05;;;;;;;8.00;7.20;;;23.60;99.90;;;;;;5092451;28;20043;-70
2023/06/19 09:47:38;;;;;;;8.68;7.68;;;23.80;99.90;;;;;;5092104;28;20402;-70
2023/06/19 09:50:05;;;;;;;7.30;6.60;;;23.90;99.90;;;;;;5092226;28;20498;-70
2023/06/19 09:52:32;;;;;;;8.10;7.30;;;24.00;99.90;;;;;;5066943;28;20086;-71
2023/06/19 09:54:57;;;;;;;9.60;7.72;;;24.10;99.90;;;;;;5089580;28;20047;-70
2023/06/19 09:57:24;;;;;;;7.85;7.05;;;24.20;99.80;;;;;;5092260;28;20035;-71
2023/06/19 09:59:54;;;;;;;9.00;7.27;;;24.20;99.40;;;;;;5094409;28;20051;-70
2023/06/19 10:02:21;;;;;;;9.07;7.07;;;24.00;99.00;;;;;;5074403;28;20074;-74
2023/06/19 10:04:55;;;;;;;8.52;7.47;;;23.90;98.80;;;;;;5092432;28;20047;-74
2023/06/19 10:07:27;;;;;;;9.70;8.50;;;23.80;98.40;;;;;;5099256;28;20048;-73
2023/06/19 10:10:07;;;;;;;11.40;9.77;;;23.90;98.20;;;;;;5093706;28;20729;-72
2023/06/19 10:12:35;;;;;;;10.73;9.63;;;24.00;97.70;;;;;;5112534;27;20507;-70
2023/06/19 10:15:18;;;;;;;10.70;9.80;;;24.10;97.60;;;;;;5097666;28;20032;-72
2023/06/19 10:17:53;;;;;;;11.25;10.25;;;24.30;97.20;;;;;;5095111;28;20039;-71
2023/06/19 10:20:31;;;;;;;11.10;10.00;;;24.40;97.10;;;;;;5086669;28;20928;-71
2023/06/19 10:23:18;;;;;;;10.38;9.38;;;24.60;96.70;;;;;;5098072;28;20040;-71
2023/06/19 10:25:45;;;;;;;11.05;9.98;;;24.60;96.40;;;;;;5088878;28;20126;-71
2023/06/19 10:28:20;;;;;;;;;;;24.60;96.10;;;;;;5099755;28;20058;-71
2023/06/19 10:30:57;;;;;;;13.25;11.80;;;24.60;95.30;;;;;;5096912;28;20018;-70
2023/06/19 10:33:25;;;;;;;12.95;10.90;;;24.50;95.60;;;;;;5109443;28;20081;-70
2023/06/19 10:35:51;;;;;;;11.63;10.30;;;24.50;95.40;;;;;;5088567;28;20980;-70
2023/06/19 10:38:17;;;;;;;9.75;8.75;;;24.40;95.20;;;;;;5070129;28;20065;-70
2023/06/19 10:40:45;;;;;;;10.40;8.88;;;24.50;95.20;;;;;;5097809;28;20130;-68
2023/06/19 10:43:19;;;;;;;10.73;9.63;;;24.60;95.20;;;;;;5091870;28;20130;-72
2023/06/19 10:45:44;;;;;;;10.30;9.27;;;24.70;95.10;;;;;;5076728;28;20193;-71
2023/06/19 10:48:10;;;;;;;10.10;7.75;;;24.80;95.10;;;;;;5098593;28;20051;-71
2023/06/19 10:50:42;;;;;;;9.18;8.38;;;24.80;94.80;;;;;;5073625;28;20093;-71
2023/06/19 10:53:08;;;;;;;13.18;8.27;;;24.80;94.80;;;;;;5110601;27;20059;-71
2023/06/19 10:55:33;;;;;;;10.70;8.80;;;24.70;94.90;;;;;;5094401;28;20055;-71
2023/06/19 10:57:59;;;;;;;9.10;7.60;;;24.60;94.80;;;;;;5097750;28;21114;-71
2023/06/19 11:00:26;;;;;;;9.40;7.95;;;24.70;95.20;;;;;;5075917;28;20048;-71
2023/06/19 11:02:52;;;;;;;9.70;8.70;;;25.00;94.90;;;;;;5095273;27;20445;-71
2023/06/19 11:05:20;;;;;;;10.17;8.00;;;24.90;94.40;;;;;;5111882;27;20054;-71
2023/06/19 11:07:54;;;;;;;10.32;7.15;;;24.90;94.30;;;;;;5071231;28;20047;-71
2023/06/19 11:10:25;;;;;;;11.13;6.60;;;25.00;94.30;;;;;;5093410;28;20047;-72
2023/06/19 11:12:58;;;;;;;11.32;7.03;;;25.10;94.30;;;;;;5090656;28;20563;-72
2023/06/19 11:15:34;;;;;;;8.85;7.78;;;25.20;94.10;;;;;;5075185;28;20054;-72
2023/06/19 11:18:03;;;;;;;11.07;7.28;;;25.30;93.30;;;;;;5092224;28;20047;-73
2023/06/19 11:20:28;;;;;;;11.77;7.55;;;25.30;93.20;;;;;;5077653;28;20491;-73
2023/06/19 11:22:56;;;;;;;7.53;6.75;;;25.40;93.10;;;;;;5068359;28;20071;-73
2023/06/19 11:25:38;;;;;;;13.88;7.97;;;25.50;93.40;;;;;;5078510;28;20073;-74
2023/06/19 11:28:13;;;;;;;10.25;8.13;;;25.60;93.10;;;;;;5066932;28;20048;-73
2023/06/19 11:30:39;;;;;;;7.75;6.97;;;25.70;92.70;;;;;;5085294;28;20128;-73
2023/06/19 11:33:16;;;;;;;10.33;7.47;;;25.70;92.70;;;;;;5078161;28;20500;-73
2023/06/19 11:35:47;;;;;;;9.85;8.00;;;25.80;92.70;;;;;;5088096;28;20321;-72
2023/06/19 11:38:17;;;;;;;12.23;9.70;;;25.90;92.60;;;;;;5095931;28;20544;-73
2023/06/19 11:40:45;;;;;;;9.55;8.40;;;25.90;92.10;;;;;;5074215;28;20043;-73
2023/06/19 11:43:11;;;;;;;12.05;9.00;;;25.80;92.30;;;;;;5096415;28;20437;-73
2023/06/19 11:45:48;;;;;;;9.87;8.80;;;25.90;92.30;;;;;;5078096;28;20055;-73
2023/06/19 11:48:24;;;;;;;9.02;8.13;;;25.90;92.20;;;;;;5110530;27;20372;-73
2023/06/19 11:50:51;;;;;;;10.68;8.20;;;25.90;92.20;;;;;;5095512;28;20586;-72
2023/06/19 11:53:17;;;;;;;12.38;9.57;;;25.90;92.10;;;;;;5081094;28;20091;-73
2023/06/19 11:55:43;;;;;;;11.98;10.05;;;25.80;92.00;;;;;;5094958;28;20554;-71
2023/06/19 11:58:09;;;;;;;10.10;9.10;;;25.80;91.50;;;;;;5081856;28;20047;-72
2023/06/19 12:00:37;;;;;;;12.23;9.48;;;25.90;91.60;;;;;;5083017;28;20050;-72
2023/06/19 12:03:03;;;;;;;10.25;7.72;;;25.90;91.30;;;;;;5067036;28;20059;-72
2023/06/19 12:05:29;;;;;;;9.25;7.70;;;25.90;91.10;;;;;;5088020;28;20063;-72
2023/06/19 12:07:55;;;;;;;12.17;8.57;;;25.90;90.90;;;;;;5061399;28;20185;-71
2023/06/19 12:10:20;;;;;;;12.03;7.30;;;25.80;90.60;;;;;;5091794;28;20059;-71
2023/06/19 12:12:46;;;;;;;9.90;8.33;;;25.70;90.40;;;;;;5091105;28;20050;-71
2023/06/19 12:15:12;;;;;;;11.63;7.93;;;25.70;90.20;;;;;;5070686;28;20556;-72
2023/06/19 12:17:38;;;;;;;10.45;8.68;;;25.60;90.40;;;;;;5068981;28;20043;-70
2023/06/19 12:20:05;;;;;;;8.63;7.18;;;25.70;90.50;;;;;;5075072;28;20521;-72
2023/06/19 12:22:33;;;;;;;9.05;8.18;;;25.70;90.50;;;;;;5068550;28;20040;-71
2023/06/19 12:24:58;;;;;;;9.93;8.93;;;25.70;90.50;;;;;;5087314;28;20073;-71
2023/06/19 12:27:24;;;;;;;9.32;8.15;;;25.70;90.40;;;;;;5076769;28;20051;-71
2023/06/19 12:29:49;;;;;;;11.27;8.63;;;25.80;90.30;;;;;;5095746;28;20063;-71
2023/06/19 12:32:15;;;;;;;11.85;8.88;;;25.80;90.10;;;;;;5094612;28;20188;-72
2023/06/19 12:34:46;;;;;;;10.05;9.02;;;25.80;90.00;;;;;;5096950;28;20634;-71
2023/06/19 12:37:13;;;;;;;11.00;8.52;;;25.70;90.00;;;;;;5094914;28;20047;-71
2023/06/19 12:39:41;;;;;;;11.32;9.15;;;25.70;90.10;;;;;;5062983;28;20100;-71
2023/06/19 12:42:07;;;;;;;11.48;7.78;;;25.60;89.90;;;;;;5107047;27;20063;-71
2023/06/19 12:44:32;;;;;;;11.07;9.20;;;25.60;90.30;;;;;;5095548;28;20085;-71
2023/06/19 12:47:00;;;;;;;11.75;7.97;;;25.60;90.10;;;;;;5093497;28;20043;-72